sensor_id;sensor_type;location;lat;lon;timestamp;P1;durP1;ratioP1;P2;durP2;ratioP2
78716;SDS011;68045;50.042;14.432;2023-09-08T00:02:33;12.13;;;6.20;;
78716;SDS011;68045;50.042;14.432;2023-09-08T00:06:33;10.93;;;6.88;;
78716;SDS011;68045;50.042;14.432;2023-09-08T00:10:34;9.35;;;6.40;;
78716;SDS011;68045;50.042;14.432;2023-09-08T00:14:35;14.32;;;6.43;;
78716;SDS011;68045;50.042;14.432;2023-09-08T00:18:36;12.38;;;6.82;;
78716;SDS011;68045;50.042;14.432;2023-09-08T00:22:37;12.15;;;6.30;;
78716;SDS011;68045;50.042;14.432;2023-09-08T00:26:38;11.25;;;7.15;;
78716;SDS011;68045;50.042;14.432;2023-09-08T00:30:39;11.38;;;6.70;;
78716;SDS011;68045;50.042;14.432;2023-09-08T00:34:40;9.02;;;5.93;;
78716;SDS011;68045;50.042;14.432;2023-09-08T00:38:41;12.38;;;6.72;;
78716;SDS011;68045;50.042;14.432;2023-09-08T00:42:42;11.75;;;6.40;;
78716;SDS011;68045;50.042;14.432;2023-09-08T00:46:43;11.27;;;6.45;;
78716;SDS011;68045;50.042;14.432;2023-09-08T00:50:44;11.75;;;6.30;;
78716;SDS011;68045;50.042;14.432;2023-09-08T00:54:45;10.93;;;5.82;;
78716;SDS011;68045;50.042;14.432;2023-09-08T00:58:46;10.35;;;6.30;;
78716;SDS011;68045;50.042;14.432;2023-09-08T01:02:47;13.00;;;6.60;;
78716;SDS011;68045;50.042;14.432;2023-09-08T01:06:48;10.93;;;6.72;;
78716;SDS011;68045;50.042;14.432;2023-09-08T01:10:50;11.63;;;7.07;;
78716;SDS011;68045;50.042;14.432;2023-09-08T01:14:51;13.07;;;7.28;;
78716;SDS011;68045;50.042;14.432;2023-09-08T01:18:52;13.32;;;7.20;;
78716;SDS011;68045;50.042;14.432;2023-09-08T01:27:14;13.50;;;7.63;;
78716;SDS011;68045;50.042;14.432;2023-09-08T01:31:17;11.77;;;7.50;;
78716;SDS011;68045;50.042;14.432;2023-09-08T01:35:19;13.73;;;7.65;;
78716;SDS011;68045;50.042;14.432;2023-09-08T01:39:20;11.48;;;7.22;;
78716;SDS011;68045;50.042;14.432;2023-09-08T01:43:21;11.50;;;7.63;;
78716;SDS011;68045;50.042;14.432;2023-09-08T01:47:22;12.27;;;7.32;;
78716;SDS011;68045;50.042;14.432;2023-09-08T01:51:23;11.13;;;7.35;;
78716;SDS011;68045;50.042;14.432;2023-09-08T01:55:23;10.15;;;7.32;;
78716;SDS011;68045;50.042;14.432;2023-09-08T01:59:24;10.02;;;6.38;;
78716;SDS011;68045;50.042;14.432;2023-09-08T02:03:25;13.85;;;7.93;;
78716;SDS011;68045;50.042;14.432;2023-09-08T02:07:26;15.88;;;7.60;;
78716;SDS011;68045;50.042;14.432;2023-09-08T02:11:27;14.52;;;7.20;;
78716;SDS011;68045;50.042;14.432;2023-09-08T02:15:28;10.05;;;7.25;;
78716;SDS011;68045;50.042;14.432;2023-09-08T02:19:29;9.82;;;6.68;;
78716;SDS011;68045;50.042;14.432;2023-09-08T02:23:30;10.68;;;7.35;;
78716;SDS011;68045;50.042;14.432;2023-09-08T02:27:31;12.25;;;7.40;;
78716;SDS011;68045;50.042;14.432;2023-09-08T02:31:31;14.10;;;7.22;;
78716;SDS011;68045;50.042;14.432;2023-09-08T02:35:37;11.23;;;7.22;;
78716;SDS011;68045;50.042;14.432;2023-09-08T02:39:40;13.38;;;8.00;;
78716;SDS011;68045;50.042;14.432;2023-09-08T02:43:41;14.65;;;8.57;;
78716;SDS011;68045;50.042;14.432;2023-09-08T02:47:42;11.07;;;7.43;;
78716;SDS011;68045;50.042;14.432;2023-09-08T02:51:43;14.18;;;8.40;;
78716;SDS011;68045;50.042;14.432;2023-09-08T02:55:45;16.00;;;8.30;;
78716;SDS011;68045;50.042;14.432;2023-09-08T02:59:49;13.40;;;7.90;;
78716;SDS011;68045;50.042;14.432;2023-09-08T03:03:51;15.93;;;8.30;;
78716;SDS011;68045;50.042;14.432;2023-09-08T03:07:54;13.43;;;8.07;;
78716;SDS011;68045;50.042;14.432;2023-09-08T03:11:56;13.82;;;7.68;;
78716;SDS011;68045;50.042;14.432;2023-09-08T03:15:56;16.20;;;8.93;;
78716;SDS011;68045;50.042;14.432;2023-09-08T03:19:57;13.40;;;8.10;;
78716;SDS011;68045;50.042;14.432;2023-09-08T03:23:58;16.40;;;8.48;;
78716;SDS011;68045;50.042;14.432;2023-09-08T03:27:59;11.55;;;7.72;;
78716;SDS011;68045;50.042;14.432;2023-09-08T03:32:00;13.27;;;8.43;;
78716;SDS011;68045;50.042;14.432;2023-09-08T03:36:00;15.00;;;8.10;;
78716;SDS011;68045;50.042;14.432;2023-09-08T03:40:02;14.50;;;8.90;;
78716;SDS011;68045;50.042;14.432;2023-09-08T03:44:06;16.73;;;9.73;;
78716;SDS011;68045;50.042;14.432;2023-09-08T03:48:07;15.27;;;8.45;;
78716;SDS011;68045;50.042;14.432;2023-09-08T03:52:08;15.55;;;9.18;;
78716;SDS011;68045;50.042;14.432;2023-09-08T03:56:09;13.32;;;7.70;;
78716;SDS011;68045;50.042;14.432;2023-09-08T04:00:09;14.05;;;7.60;;
78716;SDS011;68045;50.042;14.432;2023-09-08T04:04:14;14.05;;;7.88;;
78716;SDS011;68045;50.042;14.432;2023-09-08T04:08:15;12.90;;;7.95;;
78716;SDS011;68045;50.042;14.432;2023-09-08T04:12:16;13.13;;;8.05;;
78716;SDS011;68045;50.042;14.432;2023-09-08T04:16:17;14.35;;;8.07;;
78716;SDS011;68045;50.042;14.432;2023-09-08T04:20:18;11.73;;;7.53;;
78716;SDS011;68045;50.042;14.432;2023-09-08T04:24:19;16.58;;;9.50;;
78716;SDS011;68045;50.042;14.432;2023-09-08T04:28:20;18.73;;;8.65;;
78716;SDS011;68045;50.042;14.432;2023-09-08T04:32:21;15.88;;;8.30;;
78716;SDS011;68045;50.042;14.432;2023-09-08T04:36:23;16.00;;;8.32;;
78716;SDS011;68045;50.042;14.432;2023-09-08T04:40:24;13.57;;;7.95;;
78716;SDS011;68045;50.042;14.432;2023-09-08T04:44:25;14.63;;;8.07;;
78716;SDS011;68045;50.042;14.432;2023-09-08T04:48:26;17.25;;;7.72;;
78716;SDS011;68045;50.042;14.432;2023-09-08T04:52:27;15.93;;;8.25;;
78716;SDS011;68045;50.042;14.432;2023-09-08T04:56:28;11.68;;;8.10;;
78716;SDS011;68045;50.042;14.432;2023-09-08T05:00:29;14.25;;;8.52;;
78716;SDS011;68045;50.042;14.432;2023-09-08T05:04:30;18.80;;;9.43;;
78716;SDS011;68045;50.042;14.432;2023-09-08T05:08:31;12.70;;;9.02;;
78716;SDS011;68045;50.042;14.432;2023-09-08T05:12:34;14.60;;;9.07;;
78716;SDS011;68045;50.042;14.432;2023-09-08T05:16:35;14.38;;;8.60;;
78716;SDS011;68045;50.042;14.432;2023-09-08T05:20:59;15.65;;;8.48;;
78716;SDS011;68045;50.042;14.432;2023-09-08T05:24:59;14.82;;;7.53;;
78716;SDS011;68045;50.042;14.432;2023-09-08T05:29:00;11.02;;;7.90;;
78716;SDS011;68045;50.042;14.432;2023-09-08T05:33:02;15.32;;;8.43;;
78716;SDS011;68045;50.042;14.432;2023-09-08T05:37:03;16.55;;;9.18;;
78716;SDS011;68045;50.042;14.432;2023-09-08T05:41:04;13.65;;;8.05;;
78716;SDS011;68045;50.042;14.432;2023-09-08T05:45:06;14.55;;;7.65;;
78716;SDS011;68045;50.042;14.432;2023-09-08T05:49:07;14.50;;;8.52;;
78716;SDS011;68045;50.042;14.432;2023-09-08T05:53:10;15.88;;;7.63;;
78716;SDS011;68045;50.042;14.432;2023-09-08T05:57:11;10.50;;;7.15;;
78716;SDS011;68045;50.042;14.432;2023-09-08T06:01:12;15.63;;;7.43;;
78716;SDS011;68045;50.042;14.432;2023-09-08T06:05:13;17.30;;;7.47;;
78716;SDS011;68045;50.042;14.432;2023-09-08T06:09:14;14.35;;;7.50;;
78716;SDS011;68045;50.042;14.432;2023-09-08T06:13:17;14.50;;;7.90;;
78716;SDS011;68045;50.042;14.432;2023-09-08T06:17:18;15.27;;;8.57;;
78716;SDS011;68045;50.042;14.432;2023-09-08T06:21:20;11.98;;;8.07;;
78716;SDS011;68045;50.042;14.432;2023-09-08T06:25:21;14.00;;;8.35;;
78716;SDS011;68045;50.042;14.432;2023-09-08T06:29:22;15.68;;;9.50;;
78716;SDS011;68045;50.042;14.432;2023-09-08T06:33:23;15.13;;;8.85;;
78716;SDS011;68045;50.042;14.432;2023-09-08T06:37:24;15.55;;;9.02;;
78716;SDS011;68045;50.042;14.432;2023-09-08T06:41:26;20.98;;;9.40;;
78716;SDS011;68045;50.042;14.432;2023-09-08T06:45:29;12.32;;;7.85;;
78716;SDS011;68045;50.042;14.432;2023-09-08T06:49:30;14.15;;;8.48;;
78716;SDS011;68045;50.042;14.432;2023-09-08T06:53:31;14.20;;;8.93;;
78716;SDS011;68045;50.042;14.432;2023-09-08T06:57:32;14.93;;;9.00;;
78716;SDS011;68045;50.042;14.432;2023-09-08T07:01:33;13.93;;;9.20;;
78716;SDS011;68045;50.042;14.432;2023-09-08T07:05:34;13.40;;;9.55;;
78716;SDS011;68045;50.042;14.432;2023-09-08T07:09:37;13.80;;;9.73;;
78716;SDS011;68045;50.042;14.432;2023-09-08T07:13:39;18.23;;;10.52;;
78716;SDS011;68045;50.042;14.432;2023-09-08T07:17:39;17.27;;;10.18;;
78716;SDS011;68045;50.042;14.432;2023-09-08T07:21:40;17.10;;;9.75;;
78716;SDS011;68045;50.042;14.432;2023-09-08T07:25:44;21.73;;;9.93;;
78716;SDS011;68045;50.042;14.432;2023-09-08T07:29:47;16.38;;;8.85;;
78716;SDS011;68045;50.042;14.432;2023-09-08T07:33:50;15.18;;;8.93;;
78716;SDS011;68045;50.042;14.432;2023-09-08T07:37:52;19.25;;;9.23;;
78716;SDS011;68045;50.042;14.432;2023-09-08T07:41:52;15.23;;;8.20;;
78716;SDS011;68045;50.042;14.432;2023-09-08T07:45:55;12.68;;;8.50;;
78716;SDS011;68045;50.042;14.432;2023-09-08T07:50:15;14.80;;;8.02;;
78716;SDS011;68045;50.042;14.432;2023-09-08T07:54:23;12.77;;;7.95;;
78716;SDS011;68045;50.042;14.432;2023-09-08T07:58:25;15.73;;;7.43;;
78716;SDS011;68045;50.042;14.432;2023-09-08T08:02:25;17.58;;;8.35;;
78716;SDS011;68045;50.042;14.432;2023-09-08T08:06:26;13.77;;;8.15;;
78716;SDS011;68045;50.042;14.432;2023-09-08T08:10:27;14.80;;;7.65;;
78716;SDS011;68045;50.042;14.432;2023-09-08T08:14:28;13.00;;;7.47;;
78716;SDS011;68045;50.042;14.432;2023-09-08T08:18:29;13.15;;;7.55;;
78716;SDS011;68045;50.042;14.432;2023-09-08T08:22:30;16.20;;;7.70;;
78716;SDS011;68045;50.042;14.432;2023-09-08T08:26:31;12.65;;;7.45;;
78716;SDS011;68045;50.042;14.432;2023-09-08T08:30:33;11.25;;;6.90;;
78716;SDS011;68045;50.042;14.432;2023-09-08T08:34:36;11.10;;;6.65;;
78716;SDS011;68045;50.042;14.432;2023-09-08T08:38:36;13.77;;;6.70;;
78716;SDS011;68045;50.042;14.432;2023-09-08T08:42:37;8.70;;;7.00;;
78716;SDS011;68045;50.042;14.432;2023-09-08T08:46:38;9.98;;;6.35;;
78716;SDS011;68045;50.042;14.432;2023-09-08T08:50:42;8.52;;;6.13;;
78716;SDS011;68045;50.042;14.432;2023-09-08T08:54:44;8.98;;;6.45;;
78716;SDS011;68045;50.042;14.432;2023-09-08T08:58:46;9.35;;;6.35;;
78716;SDS011;68045;50.042;14.432;2023-09-08T09:02:47;8.43;;;5.93;;
78716;SDS011;68045;50.042;14.432;2023-09-08T09:06:55;8.57;;;6.10;;
78716;SDS011;68045;50.042;14.432;2023-09-08T09:10:56;8.05;;;5.63;;
78716;SDS011;68045;50.042;14.432;2023-09-08T09:14:58;9.10;;;5.22;;
78716;SDS011;68045;50.042;14.432;2023-09-08T09:18:59;10.27;;;6.15;;
78716;SDS011;68045;50.042;14.432;2023-09-08T09:23:00;6.35;;;5.35;;
78716;SDS011;68045;50.042;14.432;2023-09-08T09:31:04;12.98;;;5.93;;
78716;SDS011;68045;50.042;14.432;2023-09-08T09:35:05;8.27;;;4.93;;
78716;SDS011;68045;50.042;14.432;2023-09-08T09:39:07;7.28;;;5.45;;
78716;SDS011;68045;50.042;14.432;2023-09-08T09:43:08;7.88;;;5.43;;
78716;SDS011;68045;50.042;14.432;2023-09-08T09:47:10;7.95;;;6.20;;
78716;SDS011;68045;50.042;14.432;2023-09-08T09:51:16;8.80;;;5.68;;
78716;SDS011;68045;50.042;14.432;2023-09-08T09:55:17;8.43;;;5.75;;
78716;SDS011;68045;50.042;14.432;2023-09-08T09:59:19;7.88;;;6.03;;
78716;SDS011;68045;50.042;14.432;2023-09-08T10:03:20;7.18;;;5.70;;
78716;SDS011;68045;50.042;14.432;2023-09-08T10:07:24;9.20;;;6.32;;
78716;SDS011;68045;50.042;14.432;2023-09-08T10:11:25;7.60;;;5.75;;
78716;SDS011;68045;50.042;14.432;2023-09-08T10:15:30;7.60;;;5.47;;
78716;SDS011;68045;50.042;14.432;2023-09-08T10:19:31;6.88;;;6.07;;
78716;SDS011;68045;50.042;14.432;2023-09-08T10:23:38;5.88;;;5.28;;
78716;SDS011;68045;50.042;14.432;2023-09-08T10:27:42;9.18;;;6.00;;
78716;SDS011;68045;50.042;14.432;2023-09-08T10:31:43;8.20;;;6.55;;
78716;SDS011;68045;50.042;14.432;2023-09-08T10:35:45;8.95;;;5.97;;
78716;SDS011;68045;50.042;14.432;2023-09-08T10:39:47;6.93;;;5.95;;
78716;SDS011;68045;50.042;14.432;2023-09-08T10:43:57;7.85;;;6.07;;
78716;SDS011;68045;50.042;14.432;2023-09-08T10:48:02;7.20;;;5.53;;
78716;SDS011;68045;50.042;14.432;2023-09-08T10:52:08;6.45;;;5.78;;
78716;SDS011;68045;50.042;14.432;2023-09-08T10:56:09;8.13;;;5.45;;
78716;SDS011;68045;50.042;14.432;2023-09-08T11:00:10;5.78;;;5.22;;
78716;SDS011;68045;50.042;14.432;2023-09-08T11:04:12;9.18;;;5.07;;
78716;SDS011;68045;50.042;14.432;2023-09-08T11:08:14;5.45;;;4.90;;
78716;SDS011;68045;50.042;14.432;2023-09-08T11:12:18;6.40;;;4.88;;
78716;SDS011;68045;50.042;14.432;2023-09-08T11:16:23;5.95;;;4.93;;
78716;SDS011;68045;50.042;14.432;2023-09-08T11:20:29;5.85;;;4.97;;
78716;SDS011;68045;50.042;14.432;2023-09-08T11:24:30;7.18;;;4.72;;
78716;SDS011;68045;50.042;14.432;2023-09-08T11:28:31;6.00;;;4.82;;
78716;SDS011;68045;50.042;14.432;2023-09-08T11:32:33;6.85;;;4.63;;
78716;SDS011;68045;50.042;14.432;2023-09-08T11:36:34;6.78;;;4.80;;
78716;SDS011;68045;50.042;14.432;2023-09-08T11:40:36;5.65;;;4.55;;
78716;SDS011;68045;50.042;14.432;2023-09-08T11:44:38;5.30;;;4.70;;
78716;SDS011;68045;50.042;14.432;2023-09-08T11:48:39;5.20;;;4.70;;
78716;SDS011;68045;50.042;14.432;2023-09-08T11:52:43;6.93;;;4.88;;
78716;SDS011;68045;50.042;14.432;2023-09-08T11:56:45;7.43;;;5.15;;
78716;SDS011;68045;50.042;14.432;2023-09-08T12:00:47;6.50;;;4.95;;
78716;SDS011;68045;50.042;14.432;2023-09-08T12:04:49;10.32;;;4.95;;
78716;SDS011;68045;50.042;14.432;2023-09-08T12:08:50;7.20;;;4.60;;
78716;SDS011;68045;50.042;14.432;2023-09-08T12:12:52;5.72;;;4.85;;
78716;SDS011;68045;50.042;14.432;2023-09-08T12:17:13;5.80;;;4.90;;
78716;SDS011;68045;50.042;14.432;2023-09-08T12:21:17;8.00;;;4.60;;
78716;SDS011;68045;50.042;14.432;2023-09-08T12:25:19;5.05;;;4.40;;
78716;SDS011;68045;50.042;14.432;2023-09-08T12:29:19;7.53;;;4.60;;
78716;SDS011;68045;50.042;14.432;2023-09-08T12:33:20;5.80;;;4.43;;
78716;SDS011;68045;50.042;14.432;2023-09-08T12:37:22;5.55;;;4.47;;
78716;SDS011;68045;50.042;14.432;2023-09-08T12:41:23;9.60;;;4.72;;
78716;SDS011;68045;50.042;14.432;2023-09-08T12:45:25;5.28;;;4.28;;
78716;SDS011;68045;50.042;14.432;2023-09-08T12:49:27;5.25;;;4.35;;
78716;SDS011;68045;50.042;14.432;2023-09-08T12:53:29;6.93;;;4.72;;
78716;SDS011;68045;50.042;14.432;2023-09-08T12:57:34;5.75;;;4.93;;
78716;SDS011;68045;50.042;14.432;2023-09-08T13:01:35;8.05;;;4.80;;
78716;SDS011;68045;50.042;14.432;2023-09-08T13:05:36;5.75;;;5.00;;
78716;SDS011;68045;50.042;14.432;2023-09-08T13:09:39;7.18;;;4.90;;
78716;SDS011;68045;50.042;14.432;2023-09-08T13:13:39;6.68;;;4.60;;
78716;SDS011;68045;50.042;14.432;2023-09-08T13:17:40;5.40;;;4.05;;
78716;SDS011;68045;50.042;14.432;2023-09-08T13:21:41;5.03;;;4.47;;
78716;SDS011;68045;50.042;14.432;2023-09-08T13:25:42;6.20;;;4.53;;
78716;SDS011;68045;50.042;14.432;2023-09-08T13:29:45;5.80;;;4.53;;
78716;SDS011;68045;50.042;14.432;2023-09-08T13:33:46;7.45;;;4.50;;
78716;SDS011;68045;50.042;14.432;2023-09-08T13:37:47;7.50;;;4.25;;
78716;SDS011;68045;50.042;14.432;2023-09-08T13:45:52;5.30;;;4.35;;
78716;SDS011;68045;50.042;14.432;2023-09-08T13:49:53;8.95;;;4.18;;
78716;SDS011;68045;50.042;14.432;2023-09-08T13:53:54;8.73;;;4.53;;
78716;SDS011;68045;50.042;14.432;2023-09-08T13:57:54;7.78;;;4.43;;
78716;SDS011;68045;50.042;14.432;2023-09-08T14:01:55;8.57;;;4.65;;
78716;SDS011;68045;50.042;14.432;2023-09-08T14:05:58;6.40;;;4.65;;
78716;SDS011;68045;50.042;14.432;2023-09-08T14:09:59;9.02;;;4.75;;
78716;SDS011;68045;50.042;14.432;2023-09-08T14:14:01;6.93;;;4.20;;
78716;SDS011;68045;50.042;14.432;2023-09-08T14:18:04;7.10;;;4.10;;
78716;SDS011;68045;50.042;14.432;2023-09-08T14:22:05;6.38;;;4.55;;
78716;SDS011;68045;50.042;14.432;2023-09-08T14:26:06;8.00;;;4.30;;
78716;SDS011;68045;50.042;14.432;2023-09-08T14:30:08;7.97;;;4.55;;
78716;SDS011;68045;50.042;14.432;2023-09-08T14:34:09;6.22;;;4.20;;
78716;SDS011;68045;50.042;14.432;2023-09-08T14:38:10;7.75;;;5.05;;
78716;SDS011;68045;50.042;14.432;2023-09-08T14:42:10;6.95;;;4.15;;
78716;SDS011;68045;50.042;14.432;2023-09-08T14:46:11;7.25;;;4.43;;
78716;SDS011;68045;50.042;14.432;2023-09-08T14:50:12;6.15;;;4.30;;
78716;SDS011;68045;50.042;14.432;2023-09-08T14:58:15;7.63;;;4.60;;
78716;SDS011;68045;50.042;14.432;2023-09-08T15:02:16;7.43;;;4.32;;
78716;SDS011;68045;50.042;14.432;2023-09-08T15:06:17;6.95;;;4.45;;
78716;SDS011;68045;50.042;14.432;2023-09-08T15:10:18;8.55;;;4.32;;
78716;SDS011;68045;50.042;14.432;2023-09-08T15:14:19;7.70;;;4.10;;
78716;SDS011;68045;50.042;14.432;2023-09-08T15:18:20;6.22;;;4.22;;
78716;SDS011;68045;50.042;14.432;2023-09-08T15:22:23;6.20;;;4.38;;
78716;SDS011;68045;50.042;14.432;2023-09-08T15:26:24;6.28;;;3.85;;
78716;SDS011;68045;50.042;14.432;2023-09-08T15:30:25;7.60;;;4.47;;
78716;SDS011;68045;50.042;14.432;2023-09-08T15:34:25;6.30;;;4.25;;
78716;SDS011;68045;50.042;14.432;2023-09-08T15:38:26;6.80;;;4.22;;
78716;SDS011;68045;50.042;14.432;2023-09-08T15:42:27;5.30;;;3.58;;
78716;SDS011;68045;50.042;14.432;2023-09-08T15:46:28;5.45;;;3.78;;
78716;SDS011;68045;50.042;14.432;2023-09-08T15:50:29;7.68;;;4.28;;
78716;SDS011;68045;50.042;14.432;2023-09-08T15:54:30;7.13;;;4.03;;
78716;SDS011;68045;50.042;14.432;2023-09-08T15:58:31;6.68;;;4.07;;
78716;SDS011;68045;50.042;14.432;2023-09-08T16:02:32;6.45;;;4.30;;
78716;SDS011;68045;50.042;14.432;2023-09-08T16:06:33;6.60;;;4.00;;
78716;SDS011;68045;50.042;14.432;2023-09-08T16:10:34;5.97;;;4.32;;
78716;SDS011;68045;50.042;14.432;2023-09-08T16:14:35;8.07;;;4.70;;
78716;SDS011;68045;50.042;14.432;2023-09-08T16:18:35;7.95;;;4.13;;
78716;SDS011;68045;50.042;14.432;2023-09-08T16:22:36;6.15;;;4.35;;
78716;SDS011;68045;50.042;14.432;2023-09-08T16:26:37;8.38;;;4.00;;
78716;SDS011;68045;50.042;14.432;2023-09-08T16:30:38;10.88;;;3.97;;
78716;SDS011;68045;50.042;14.432;2023-09-08T16:34:39;6.57;;;4.20;;
78716;SDS011;68045;50.042;14.432;2023-09-08T16:38:40;6.25;;;3.80;;
78716;SDS011;68045;50.042;14.432;2023-09-08T16:42:41;6.93;;;4.13;;
78716;SDS011;68045;50.042;14.432;2023-09-08T16:46:41;8.13;;;4.53;;
78716;SDS011;68045;50.042;14.432;2023-09-08T16:50:42;6.57;;;4.60;;
78716;SDS011;68045;50.042;14.432;2023-09-08T16:54:43;7.93;;;4.25;;
78716;SDS011;68045;50.042;14.432;2023-09-08T16:58:46;6.65;;;3.90;;
78716;SDS011;68045;50.042;14.432;2023-09-08T17:02:47;7.35;;;5.40;;
78716;SDS011;68045;50.042;14.432;2023-09-08T17:06:48;8.15;;;4.60;;
78716;SDS011;68045;50.042;14.432;2023-09-08T17:10:49;11.75;;;5.30;;
78716;SDS011;68045;50.042;14.432;2023-09-08T17:14:49;10.52;;;4.60;;
78716;SDS011;68045;50.042;14.432;2023-09-08T17:18:50;7.10;;;4.57;;
78716;SDS011;68045;50.042;14.432;2023-09-08T17:22:51;8.70;;;4.75;;
78716;SDS011;68045;50.042;14.432;2023-09-08T17:26:53;7.22;;;4.63;;
78716;SDS011;68045;50.042;14.432;2023-09-08T17:30:55;8.02;;;4.75;;
78716;SDS011;68045;50.042;14.432;2023-09-08T17:34:56;8.27;;;4.97;;
78716;SDS011;68045;50.042;14.432;2023-09-08T17:38:57;6.85;;;4.80;;
78716;SDS011;68045;50.042;14.432;2023-09-08T17:42:58;7.75;;;4.40;;
78716;SDS011;68045;50.042;14.432;2023-09-08T17:46:59;7.13;;;4.80;;
78716;SDS011;68045;50.042;14.432;2023-09-08T17:51:00;7.15;;;4.28;;
78716;SDS011;68045;50.042;14.432;2023-09-08T17:55:01;7.13;;;4.65;;
78716;SDS011;68045;50.042;14.432;2023-09-08T17:59:04;8.77;;;5.38;;
78716;SDS011;68045;50.042;14.432;2023-09-08T18:03:05;6.65;;;4.85;;
78716;SDS011;68045;50.042;14.432;2023-09-08T18:07:05;12.93;;;4.97;;
78716;SDS011;68045;50.042;14.432;2023-09-08T18:11:06;7.35;;;4.97;;
78716;SDS011;68045;50.042;14.432;2023-09-08T18:15:07;7.30;;;4.90;;
78716;SDS011;68045;50.042;14.432;2023-09-08T18:19:09;8.52;;;5.05;;
78716;SDS011;68045;50.042;14.432;2023-09-08T18:23:10;9.35;;;4.90;;
78716;SDS011;68045;50.042;14.432;2023-09-08T18:27:10;9.00;;;4.97;;
78716;SDS011;68045;50.042;14.432;2023-09-08T18:31:11;9.90;;;5.05;;
78716;SDS011;68045;50.042;14.432;2023-09-08T18:35:12;8.70;;;4.78;;
78716;SDS011;68045;50.042;14.432;2023-09-08T18:39:13;8.75;;;4.82;;
78716;SDS011;68045;50.042;14.432;2023-09-08T18:43:14;7.45;;;5.22;;
78716;SDS011;68045;50.042;14.432;2023-09-08T18:47:16;11.32;;;5.68;;
78716;SDS011;68045;50.042;14.432;2023-09-08T18:51:17;7.82;;;5.15;;
78716;SDS011;68045;50.042;14.432;2023-09-08T18:55:17;10.77;;;5.32;;
78716;SDS011;68045;50.042;14.432;2023-09-08T18:59:19;11.50;;;5.68;;
78716;SDS011;68045;50.042;14.432;2023-09-08T19:03:19;9.85;;;5.88;;
78716;SDS011;68045;50.042;14.432;2023-09-08T19:07:20;7.63;;;5.53;;
78716;SDS011;68045;50.042;14.432;2023-09-08T19:11:22;10.68;;;6.13;;
78716;SDS011;68045;50.042;14.432;2023-09-08T19:15:22;9.90;;;5.72;;
78716;SDS011;68045;50.042;14.432;2023-09-08T19:19:24;11.63;;;5.88;;
78716;SDS011;68045;50.042;14.432;2023-09-08T19:23:25;10.32;;;6.55;;
78716;SDS011;68045;50.042;14.432;2023-09-08T19:27:26;10.05;;;5.97;;
78716;SDS011;68045;50.042;14.432;2023-09-08T19:31:27;11.23;;;5.85;;
78716;SDS011;68045;50.042;14.432;2023-09-08T19:35:27;8.38;;;5.30;;
78716;SDS011;68045;50.042;14.432;2023-09-08T19:39:28;9.63;;;6.05;;
78716;SDS011;68045;50.042;14.432;2023-09-08T19:43:30;11.98;;;6.05;;
78716;SDS011;68045;50.042;14.432;2023-09-08T19:47:31;8.65;;;5.70;;
78716;SDS011;68045;50.042;14.432;2023-09-08T19:51:32;9.75;;;5.72;;
78716;SDS011;68045;50.042;14.432;2023-09-08T19:55:33;10.50;;;6.72;;
78716;SDS011;68045;50.042;14.432;2023-09-08T19:59:34;8.65;;;6.07;;
78716;SDS011;68045;50.042;14.432;2023-09-08T20:07:36;9.90;;;6.22;;
78716;SDS011;68045;50.042;14.432;2023-09-08T20:11:39;11.93;;;6.05;;
78716;SDS011;68045;50.042;14.432;2023-09-08T20:15:41;13.90;;;6.22;;
78716;SDS011;68045;50.042;14.432;2023-09-08T20:19:41;7.53;;;5.72;;
78716;SDS011;68045;50.042;14.432;2023-09-08T20:23:42;7.03;;;5.53;;
78716;SDS011;68045;50.042;14.432;2023-09-08T20:27:43;10.15;;;6.07;;
78716;SDS011;68045;50.042;14.432;2023-09-08T20:31:44;14.43;;;6.47;;
78716;SDS011;68045;50.042;14.432;2023-09-08T20:35:45;8.23;;;5.82;;
78716;SDS011;68045;50.042;14.432;2023-09-08T20:39:45;14.70;;;7.30;;
78716;SDS011;68045;50.042;14.432;2023-09-08T20:43:47;9.70;;;6.38;;
78716;SDS011;68045;50.042;14.432;2023-09-08T20:47:48;11.02;;;6.38;;
78716;SDS011;68045;50.042;14.432;2023-09-08T20:51:48;9.50;;;6.25;;
78716;SDS011;68045;50.042;14.432;2023-09-08T20:55:49;11.23;;;6.57;;
78716;SDS011;68045;50.042;14.432;2023-09-08T20:59:50;8.52;;;6.22;;
78716;SDS011;68045;50.042;14.432;2023-09-08T21:03:51;8.98;;;6.03;;
78716;SDS011;68045;50.042;14.432;2023-09-08T21:07:52;10.90;;;6.40;;
78716;SDS011;68045;50.042;14.432;2023-09-08T21:11:54;7.72;;;5.47;;
78716;SDS011;68045;50.042;14.432;2023-09-08T21:15:55;8.88;;;5.78;;
78716;SDS011;68045;50.042;14.432;2023-09-08T21:19:56;10.77;;;5.80;;
78716;SDS011;68045;50.042;14.432;2023-09-08T21:23:59;7.85;;;5.43;;
78716;SDS011;68045;50.042;14.432;2023-09-08T21:28:00;12.82;;;6.07;;
78716;SDS011;68045;50.042;14.432;2023-09-08T21:32:02;7.32;;;5.53;;
78716;SDS011;68045;50.042;14.432;2023-09-08T21:36:03;9.00;;;6.00;;
78716;SDS011;68045;50.042;14.432;2023-09-08T21:40:05;9.20;;;5.47;;
78716;SDS011;68045;50.042;14.432;2023-09-08T21:44:06;7.82;;;5.63;;
78716;SDS011;68045;50.042;14.432;2023-09-08T21:48:07;7.47;;;5.25;;
78716;SDS011;68045;50.042;14.432;2023-09-08T21:52:08;8.18;;;5.35;;
78716;SDS011;68045;50.042;14.432;2023-09-08T21:56:08;9.05;;;5.55;;
78716;SDS011;68045;50.042;14.432;2023-09-08T22:00:11;10.65;;;5.93;;
78716;SDS011;68045;50.042;14.432;2023-09-08T22:04:16;7.47;;;5.72;;
78716;SDS011;68045;50.042;14.432;2023-09-08T22:08:18;9.98;;;5.90;;
78716;SDS011;68045;50.042;14.432;2023-09-08T22:12:19;8.65;;;5.63;;
78716;SDS011;68045;50.042;14.432;2023-09-08T22:16:19;9.70;;;5.80;;
78716;SDS011;68045;50.042;14.432;2023-09-08T22:20:20;10.50;;;6.03;;
78716;SDS011;68045;50.042;14.432;2023-09-08T22:24:22;10.25;;;6.18;;
78716;SDS011;68045;50.042;14.432;2023-09-08T22:28:23;8.38;;;5.85;;
78716;SDS011;68045;50.042;14.432;2023-09-08T22:32:24;13.32;;;6.10;;
78716;SDS011;68045;50.042;14.432;2023-09-08T22:36:27;10.18;;;6.18;;
78716;SDS011;68045;50.042;14.432;2023-09-08T22:40:27;9.68;;;5.65;;
78716;SDS011;68045;50.042;14.432;2023-09-08T22:44:28;9.02;;;5.60;;
78716;SDS011;68045;50.042;14.432;2023-09-08T22:48:29;9.18;;;5.43;;
78716;SDS011;68045;50.042;14.432;2023-09-08T22:52:30;7.78;;;5.35;;
78716;SDS011;68045;50.042;14.432;2023-09-08T22:56:31;9.27;;;6.32;;
78716;SDS011;68045;50.042;14.432;2023-09-08T23:00:33;9.95;;;6.65;;
78716;SDS011;68045;50.042;14.432;2023-09-08T23:04:34;10.02;;;6.32;;
78716;SDS011;68045;50.042;14.432;2023-09-08T23:08:35;8.98;;;5.70;;
78716;SDS011;68045;50.042;14.432;2023-09-08T23:12:36;8.25;;;6.07;;
78716;SDS011;68045;50.042;14.432;2023-09-08T23:16:37;10.20;;;6.15;;
78716;SDS011;68045;50.042;14.432;2023-09-08T23:20:37;11.70;;;6.90;;
78716;SDS011;68045;50.042;14.432;2023-09-08T23:24:41;10.73;;;6.75;;
78716;SDS011;68045;50.042;14.432;2023-09-08T23:28:42;9.52;;;6.50;;
78716;SDS011;68045;50.042;14.432;2023-09-08T23:32:43;9.07;;;6.30;;
78716;SDS011;68045;50.042;14.432;2023-09-08T23:36:43;11.60;;;5.88;;
78716;SDS011;68045;50.042;14.432;2023-09-08T23:40:44;13.10;;;6.45;;
78716;SDS011;68045;50.042;14.432;2023-09-08T23:44:45;10.10;;;6.22;;
78716;SDS011;68045;50.042;14.432;2023-09-08T23:48:46;8.98;;;6.55;;
78716;SDS011;68045;50.042;14.432;2023-09-08T23:52:46;11.35;;;6.47;;
78716;SDS011;68045;50.042;14.432;2023-09-08T23:56:47;11.85;;;7.20;;
